Etusivu
METAR-TAF:

METAR-TAF

Lentoasemat :

Burnett County Airport

Siren, Wisconsin, Yhdysvallat

Leveyspiiri: 45-49-22N, Pituuspiiri: 092-22-21W, korkeus merenpinnasta: 301 m

Tämänhetkinen sää

Tämä raportti tehtiin 44 minuuttia sitten, kello 15.55 UTC
Tuuli 8 kn pohjoisesta, vaihdellen luoteen ja pohjoisen/koillisen välillä
Lämpötila 8°C
Kosteus 61%
Ilmanpaine 1019 hPa
Näkyvyys: 16.1 km
Hajanaisia pilviä 2700 ft:n korkeudessa

METAR: KRZN 161555Z AUTO 36008KT 320V020 10SM SCT027 08/01 A3009 RMK AO2 P0003 T00840014

Aika: 11:39 (16:39 UTC)


TAF: puuttuu

Säähavainnot ja -ennusteet yli 4000 lentoasemalta (METAR- ja TAF-raportit).

Käytössä olevat sääasemat on merkitty karttaan keltaisilla ja punaisilla pisteillä.

Aseta hiiri pisteen päälle nähdäksesi sääaseman nimen.

Klikkaa sitten nähdäksesi säähavainnot ja -ennusteet.

Kartan vaihtaminen: klikkaa mustalla rastilla varustettuja vihreitä pisteitä, niin voit zoomata sisään; viivalla varustettua vihreää pistettä, niin voit zoomata ulos tai vihreitä nuolia, niin pääset viereisille kartoille.


METAR-TAF: